createdAt,value
2022-08-05T03:45:22.010Z,19.20
2022-08-05T03:47:50.164Z,19.10
2022-08-05T03:50:17.301Z,20.70
2022-08-05T03:55:50.219Z,19.30
2022-08-05T03:56:10.575Z,19.10
2022-08-05T03:58:38.270Z,19.80
2022-08-05T04:01:11.101Z,19.80
2022-08-05T04:03:39.516Z,18.40
2022-08-05T04:06:06.761Z,18.00
2022-08-05T04:08:36.712Z,19.20
2022-08-05T04:11:04.756Z,19.10
2022-08-05T04:13:50.370Z,18.90
2022-08-05T04:16:24.903Z,19.60
2022-08-05T04:18:58.929Z,18.70
2022-08-05T04:22:10.163Z,18.50
2022-08-05T04:24:14.256Z,17.90
2022-08-05T04:26:46.628Z,19.10
2022-08-05T04:29:13.335Z,19.80
2022-08-05T04:31:41.052Z,17.80
2022-08-05T04:34:19.047Z,18.80
2022-08-05T04:36:56.407Z,18.20
2022-08-05T04:39:23.334Z,17.70
2022-08-05T04:41:51.253Z,18.20
2022-08-05T04:44:21.445Z,17.90
2022-08-05T04:46:56.875Z,19.90
2022-08-05T04:49:39.042Z,18.20
2022-08-05T04:52:12.296Z,18.30
2022-08-05T04:54:38.961Z,18.70
2022-08-05T04:57:05.647Z,20.30
2022-08-05T05:07:23.965Z,19.70
2022-08-05T05:09:56.603Z,19.10
2022-08-05T05:12:24.349Z,18.80
2022-08-05T05:14:54.273Z,18.20
2022-08-05T05:17:24.291Z,19.10
2022-08-05T05:19:55.234Z,19.90
2022-08-05T05:22:26.087Z,19.80
2022-08-05T05:25:00.303Z,20.00
2022-08-05T05:27:41.616Z,20.20
2022-08-05T05:30:15.626Z,19.80
2022-08-05T05:38:00.021Z,20.90
2022-08-05T05:42:55.580Z,21.30
2022-08-05T05:45:23.039Z,21.70
2022-08-05T05:50:43.934Z,22.10
2022-08-05T05:55:52.450Z,22.60
2022-08-05T05:58:31.588Z,22.30
2022-08-05T06:01:12.956Z,24.00
2022-08-05T06:04:01.100Z,22.80
2022-08-05T06:06:31.108Z,22.80
2022-08-05T06:09:00.146Z,24.10
2022-08-05T06:11:29.028Z,23.00
2022-08-05T06:13:56.448Z,24.90
2022-08-05T06:16:28.554Z,24.40
2022-08-05T06:18:59.909Z,23.80
2022-08-05T06:21:36.085Z,22.00
2022-08-05T06:29:03.436Z,23.20
2022-08-05T06:31:33.750Z,23.50
2022-08-05T06:36:37.487Z,23.90
2022-08-05T06:39:21.872Z,24.30
2022-08-05T06:41:51.203Z,24.50
2022-08-05T06:44:18.880Z,24.70
2022-08-05T06:49:17.775Z,24.80
2022-08-05T07:06:46.884Z,26.50
2022-08-05T07:09:17.201Z,26.40
2022-08-05T07:11:49.577Z,27.60
2022-08-05T07:14:37.168Z,26.30
2022-08-05T07:22:42.004Z,27.20
2022-08-05T07:25:21.935Z,27.80
2022-08-05T07:27:57.304Z,27.40
2022-08-05T07:30:31.701Z,27.50
2022-08-05T07:33:00.193Z,25.90
2022-08-05T07:36:04.909Z,28.10
2022-08-05T07:38:32.896Z,27.70
2022-08-05T07:41:16.849Z,28.40
2022-08-05T07:43:47.686Z,28.20
2022-08-05T07:46:24.620Z,28.70
2022-08-05T07:49:02.005Z,27.70
2022-08-05T07:51:36.171Z,27.90
2022-08-05T07:54:05.256Z,28.20
2022-08-05T07:57:02.527Z,28.20
2022-08-05T07:59:21.938Z,29.00
2022-08-05T08:01:58.021Z,28.50
2022-08-05T08:04:38.137Z,29.20
2022-08-05T08:07:07.345Z,29.10
2022-08-05T08:14:38.053Z,29.40
2022-08-05T08:17:15.762Z,30.10
2022-08-05T08:20:23.058Z,28.60
2022-08-05T08:22:30.511Z,29.40
2022-08-05T08:25:03.246Z,29.90
2022-08-05T08:30:29.580Z,29.40
2022-08-05T08:32:53.892Z,29.40
2022-08-05T08:35:21.083Z,30.20
2022-08-05T08:37:54.410Z,29.70
2022-08-05T08:40:23.773Z,30.70
2022-08-05T08:42:52.565Z,30.60
2022-08-05T08:45:27.169Z,31.30
2022-08-05T08:51:03.584Z,30.80
2022-08-05T08:53:26.876Z,31.60
2022-08-05T08:56:04.083Z,31.50
2022-08-05T08:58:43.174Z,30.60
2022-08-05T09:01:15.997Z,30.50
2022-08-05T09:06:15.784Z,29.90
2022-08-05T09:08:46.836Z,31.50
2022-08-05T09:11:15.002Z,30.30
2022-08-05T09:14:00.917Z,30.30
2022-08-05T09:16:28.559Z,30.70
2022-08-05T09:18:56.099Z,31.00
2022-08-05T09:22:22.998Z,30.90
2022-08-05T09:24:15.446Z,31.80
2022-08-05T09:26:46.344Z,32.40
2022-08-05T09:29:17.563Z,32.70
2022-08-05T09:32:51.177Z,33.10
2022-08-05T09:34:55.192Z,32.70
2022-08-05T09:38:12.672Z,30.70
2022-08-05T09:40:29.485Z,30.80
2022-08-05T09:42:56.263Z,30.20
2022-08-05T09:46:07.669Z,31.50
2022-08-05T09:48:28.431Z,31.50
2022-08-05T09:51:15.320Z,30.10
2022-08-05T09:53:53.947Z,30.30
2022-08-05T09:56:26.549Z,29.70
2022-08-05T09:58:59.360Z,29.70
2022-08-05T10:04:10.680Z,29.10
2022-08-05T10:06:40.457Z,29.00
2022-08-05T10:11:35.203Z,28.90
2022-08-05T10:14:20.621Z,29.00
2022-08-05T10:16:53.123Z,29.20
2022-08-05T10:19:23.553Z,30.60
2022-08-05T10:21:59.076Z,30.90
2022-08-05T10:24:27.193Z,30.80
2022-08-05T10:26:56.312Z,31.40
2022-08-05T10:30:41.597Z,31.50
2022-08-05T10:32:59.435Z,32.90
2022-08-05T10:35:03.269Z,32.20
2022-08-05T10:37:40.424Z,31.30
2022-08-05T10:40:18.857Z,32.30
2022-08-05T10:42:47.449Z,31.60
2022-08-05T10:45:23.355Z,30.90
2022-08-05T10:48:29.660Z,32.60
2022-08-05T10:51:03.374Z,32.50
2022-08-05T10:53:38.195Z,32.10
2022-08-05T10:56:21.373Z,32.10
2022-08-05T10:58:55.667Z,32.60
2022-08-05T11:01:55.602Z,32.50
2022-08-05T11:04:23.196Z,32.80
2022-08-05T11:07:04.798Z,32.90
2022-08-05T11:09:46.583Z,31.00
2022-08-05T11:12:32.565Z,30.20
2022-08-05T11:15:19.734Z,30.50
2022-08-05T11:17:57.863Z,31.30
2022-08-05T11:20:47.513Z,33.40
2022-08-05T11:24:02.955Z,31.50
2022-08-05T11:26:28.731Z,32.30
2022-08-05T11:29:12.170Z,31.90
2022-08-05T11:31:58.744Z,30.90
2022-08-05T11:34:51.765Z,31.30
2022-08-05T11:38:30.913Z,32.20
2022-08-05T11:40:43.360Z,32.30
2022-08-05T11:46:27.514Z,33.60
2022-08-05T11:51:04.070Z,33.70
2022-08-05T11:53:40.760Z,33.70
2022-08-05T11:58:36.092Z,34.50
2022-08-05T12:01:10.560Z,35.00
2022-08-05T12:03:55.750Z,35.30
2022-08-05T12:06:23.967Z,34.10
2022-08-05T12:08:52.046Z,34.80
2022-08-05T12:13:55.050Z,33.80
2022-08-05T12:16:27.127Z,34.40
2022-08-05T12:18:55.941Z,34.80
2022-08-05T12:21:39.274Z,34.60
2022-08-05T12:24:07.854Z,34.00
2022-08-05T12:26:35.621Z,34.20
2022-08-05T12:29:04.314Z,35.00
2022-08-05T12:31:45.988Z,34.80
2022-08-05T12:34:21.361Z,34.70
2022-08-05T12:36:52.239Z,34.60
2022-08-05T12:39:19.242Z,35.50
2022-08-05T12:41:46.203Z,35.30
2022-08-05T12:44:28.432Z,34.60
2022-08-05T12:47:00.483Z,34.20
2022-08-05T12:50:03.725Z,34.10
2022-08-05T12:52:32.437Z,35.60
2022-08-05T12:55:22.333Z,35.80
2022-08-05T13:02:02.520Z,36.80
2022-08-05T13:03:27.795Z,37.20
2022-08-05T13:05:59.741Z,36.80
2022-08-05T13:14:05.399Z,37.90
2022-08-05T13:16:12.173Z,38.50
2022-08-05T13:18:50.685Z,38.50
2022-08-05T13:21:17.330Z,39.60
2022-08-05T13:23:50.801Z,39.60
2022-08-05T13:26:20.902Z,38.90
2022-08-05T13:34:22.503Z,36.00
2022-08-05T13:42:06.371Z,37.60
2022-08-05T13:44:34.826Z,37.50
2022-08-05T13:47:08.497Z,38.40
2022-08-05T13:52:09.787Z,38.40
2022-08-05T13:54:36.411Z,38.20
2022-08-05T13:57:03.898Z,38.30
2022-08-05T13:59:33.277Z,37.80
2022-08-05T14:02:02.966Z,37.60
2022-08-05T14:04:51.103Z,37.10
2022-08-05T14:07:59.681Z,38.20
2022-08-05T14:10:31.005Z,39.50
2022-08-05T14:12:58.313Z,37.90
2022-08-05T14:16:08.566Z,38.70
2022-08-05T14:18:14.842Z,39.30
2022-08-05T14:20:47.329Z,37.90
2022-08-05T14:25:53.881Z,38.60
2022-08-05T14:28:26.154Z,39.60
2022-08-05T14:30:54.234Z,37.50
2022-08-05T14:33:23.101Z,37.90
2022-08-05T14:35:50.900Z,38.10
2022-08-05T14:38:32.625Z,37.30
2022-08-05T14:41:07.448Z,36.80
2022-08-05T14:44:02.134Z,36.80
2022-08-05T14:46:22.562Z,37.60
2022-08-05T14:48:55.329Z,39.00
2022-08-05T14:51:22.255Z,38.10
2022-08-05T14:54:27.045Z,38.40
2022-08-05T14:56:44.058Z,39.50
2022-08-05T15:01:48.143Z,35.60
2022-08-05T15:04:17.114Z,36.10
2022-08-05T15:06:49.219Z,37.60
2022-08-05T15:09:16.967Z,35.90
2022-08-05T15:12:04.111Z,36.60
2022-08-05T15:17:03.918Z,37.40
2022-08-05T15:19:31.298Z,37.40
2022-08-05T15:22:00.127Z,36.40
2022-08-05T15:24:27.801Z,37.40
2022-08-05T15:26:56.034Z,37.70
2022-08-05T15:29:23.797Z,38.90
2022-08-05T15:34:32.973Z,36.30
2022-08-05T15:37:06.414Z,37.70
2022-08-05T15:41:03.739Z,38.20
2022-08-05T15:42:53.591Z,36.70
2022-08-05T15:45:14.943Z,37.40
2022-08-05T15:47:42.485Z,35.00
2022-08-05T15:50:09.785Z,35.40
2022-08-05T15:52:53.911Z,35.00
2022-08-05T15:55:24.716Z,34.60
2022-08-05T15:58:09.121Z,34.50
2022-08-05T16:00:57.109Z,34.70
2022-08-05T16:03:29.922Z,34.80
2022-08-05T16:05:59.318Z,35.70
2022-08-05T16:08:30.763Z,35.70
2022-08-05T16:10:57.984Z,35.10
2022-08-05T16:13:34.082Z,34.80
2022-08-05T16:16:01.233Z,34.30
2022-08-05T16:18:30.570Z,33.60
2022-08-05T16:20:57.523Z,32.80
2022-08-05T16:23:24.262Z,32.30
2022-08-05T16:25:55.913Z,34.10
2022-08-05T16:28:24.249Z,35.20
2022-08-05T16:30:52.135Z,35.70
2022-08-05T16:33:19.594Z,34.50
2022-08-05T16:35:52.449Z,33.00
2022-08-05T16:38:25.649Z,33.30
